Time;durP1;ratioP1;P1;durP2;ratioP2;P2;SDS_P1;SDS_P2;PMS_P1;PMS_P2;Temp;Humidity;BMP_temperature;BMP_pressure;BME280_temperature;BME280_humidity;BME280_pressure;Samples;Min_cycle;Max_cycle;Signal;HPM_P1;HPM_P2
2021/01/13 00:01:04;;;;;;;0.60;0.50;;;1.80;99.90;;;2.15;100.00;-20740.53;5009015;28;20637;-65
2021/01/13 00:03:31;;;;;;;0.60;0.50;;;1.80;99.90;;;2.18;100.00;-20741.22;5014876;28;20222;-65
2021/01/13 00:05:58;;;;;;;0.60;0.50;;;1.80;99.90;;;2.25;100.00;-20743.19;5014004;28;20206;-65
2021/01/13 00:08:25;;;;;;;0.60;0.60;;;1.90;99.90;;;2.38;100.00;-20746.66;5015191;28;20548;-65
2021/01/13 00:10:53;;;;;;;0.60;0.60;;;1.90;99.90;;;2.28;100.00;-20744.00;5011404;28;20187;-65
2021/01/13 00:13:20;;;;;;;0.60;0.50;;;1.90;99.90;;;2.20;100.00;-20741.63;5014514;28;20214;-66
2021/01/13 00:15:47;;;;;;;0.70;0.60;;;1.90;99.90;;;2.25;100.00;-20743.03;5009078;28;20210;-65
2021/01/13 00:18:14;;;;;;;0.60;0.50;;;1.90;99.90;;;2.20;100.00;-20741.78;5005879;28;20187;-65
2021/01/13 00:20:41;;;;;;;0.60;0.50;;;1.90;99.90;;;2.12;100.00;-20739.53;5014005;28;20195;-65
2021/01/13 00:23:07;;;;;;;0.60;0.60;;;1.80;99.90;;;2.19;100.00;-20741.50;5014377;28;20187;-65
2021/01/13 00:25:34;;;;;;;0.60;0.50;;;1.90;99.90;;;2.38;100.00;-20746.66;5012717;28;20261;-65
2021/01/13 00:28:03;;;;;;;0.60;0.57;;;2.00;99.90;;;2.40;100.00;-20747.38;5013798;28;20705;-66
2021/01/13 00:30:30;;;;;;;0.60;0.55;;;2.00;99.90;;;2.27;100.00;-20743.72;5012539;28;20207;-65
2021/01/13 00:32:59;;;;;;;0.60;0.60;;;1.90;99.90;;;2.31;100.00;-20744.84;5014624;28;20218;-66
2021/01/13 00:35:26;;;;;;;0.60;0.60;;;1.90;99.90;;;2.38;100.00;-20746.81;5009023;28;20183;-65
2021/01/13 00:37:53;;;;;;;0.60;0.60;;;2.00;99.90;;;2.38;100.00;-20746.66;5013143;28;20198;-65
2021/01/13 00:40:19;;;;;;;0.60;0.50;;;2.00;99.90;;;2.18;100.00;-20741.38;5009186;28;20179;-66
2021/01/13 00:42:48;;;;;;;0.60;0.60;;;1.80;99.90;;;2.16;100.00;-20740.66;5012786;28;20222;-65
2021/01/13 00:45:18;;;;;;;0.60;0.60;;;1.90;99.90;;;2.07;100.00;-20738.16;5013995;28;20223;-65
2021/01/13 00:47:50;;;;;;;0.60;0.60;;;1.80;99.90;;;1.93;100.00;-20734.53;5012739;28;20266;-66
2021/01/13 00:50:17;;;;;;;0.60;0.50;;;1.70;99.90;;;2.00;100.00;-20736.34;5014724;28;20183;-67
2021/01/13 00:52:48;;;;;;;0.60;0.50;;;1.70;99.90;;;2.14;100.00;-20740.09;4995782;28;20644;-65
2021/01/13 00:55:15;;;;;;;0.60;0.50;;;1.80;99.90;;;2.04;100.00;-20737.31;5012703;28;20206;-66
2021/01/13 00:57:47;;;;;;;0.60;0.60;;;1.80;99.90;;;2.07;100.00;-20738.16;5004525;28;20191;-65
2021/01/13 01:00:16;;;;;;;0.60;0.50;;;1.80;99.90;;;2.04;100.00;-20737.31;5014507;28;20568;-67
2021/01/13 01:02:44;;;;;;;0.60;0.50;;;1.80;99.90;;;2.06;100.00;-20737.88;5008440;28;20249;-65
2021/01/13 01:05:11;;;;;;;0.60;0.50;;;1.80;99.90;;;2.07;100.00;-20738.28;5012386;28;20209;-65
2021/01/13 01:07:42;;;;;;;0.60;0.60;;;1.70;99.90;;;2.02;100.00;-20736.75;5009564;28;20187;-65
2021/01/13 01:10:17;;;;;;;0.60;0.50;;;1.70;99.90;;;1.92;100.00;-20734.09;4999662;28;20198;-66
2021/01/13 01:12:45;;;;;;;0.60;0.50;;;1.70;99.90;;;1.89;100.00;-20733.25;5009793;28;20197;-66
2021/01/13 01:15:13;;;;;;;0.93;0.85;;;1.70;99.90;;;1.96;100.00;-20735.22;5028780;28;20219;-67
2021/01/13 01:17:41;;;;;;;0.60;0.50;;;1.70;99.90;;;1.90;100.00;-20733.69;5000563;28;20877;-64
2021/01/13 01:20:11;;;;;;;0.60;0.50;;;1.60;99.90;;;1.94;100.00;-20734.78;5012608;28;20190;-64
2021/01/13 01:22:50;;;;;;;0.60;0.50;;;1.60;99.90;;;1.97;100.00;-20735.34;5013651;28;20183;-65
2021/01/13 01:25:18;;;;;;;0.60;0.50;;;1.70;99.90;;;1.98;100.00;-20735.63;5011830;28;20690;-65
2021/01/13 01:27:48;;;;;;;0.60;0.50;;;1.70;99.90;;;1.98;100.00;-20735.63;5001340;28;20203;-64
2021/01/13 01:30:17;;;;;;;0.60;0.60;;;1.70;99.90;;;2.00;100.00;-20736.34;5013517;28;20222;-64
2021/01/13 01:32:45;;;;;;;0.60;0.50;;;1.70;99.90;;;1.96;100.00;-20735.06;5012312;28;20224;-65
2021/01/13 01:35:13;;;;;;;0.60;0.60;;;1.70;99.90;;;2.12;100.00;-20739.53;5027270;28;20186;-66
2021/01/13 01:37:41;;;;;;;0.60;0.50;;;1.80;99.90;;;2.16;100.00;-20740.66;5011188;28;20206;-64
2021/01/13 01:40:11;;;;;;;0.60;0.50;;;1.80;99.90;;;2.17;100.00;-20741.09;5008500;28;20196;-64
2021/01/13 01:42:45;;;;;;;0.60;0.50;;;1.80;99.90;;;2.26;100.00;-20743.47;5010734;28;20207;-65
2021/01/13 01:45:15;;;;;;;0.60;0.60;;;1.90;99.90;;;2.32;100.00;-20745.00;5011355;28;20207;-64
2021/01/13 01:48:26;;;;;;;0.60;0.60;;;1.90;99.90;;;2.27;100.00;-20743.59;5015744;28;20257;-65
2021/01/13 01:50:58;;;;;;;0.60;0.60;;;1.90;99.90;;;2.28;100.00;-20743.88;5013313;28;20218;-64
2021/01/13 01:53:55;;;;;;;0.60;0.60;;;1.90;99.90;;;2.33;100.00;-20745.28;5013584;28;20201;-64
2021/01/13 01:56:26;;;;;;;0.60;0.50;;;1.90;99.90;;;2.22;100.00;-20742.19;5003676;28;20195;-64
2021/01/13 01:59:03;;;;;;;0.60;0.60;;;1.90;99.90;;;2.04;100.00;-20737.31;5014089;28;20203;-65
2021/01/13 02:01:34;;;;;;;0.60;0.50;;;1.80;99.90;;;2.10;100.00;-20738.97;5028119;28;20270;-64
2021/01/13 02:04:25;;;;;;;0.93;0.93;;;1.80;99.90;;;2.07;100.00;-20738.28;5013946;28;20182;-64
2021/01/13 02:07:29;;;;;;;0.60;0.50;;;1.80;99.90;;;2.06;100.00;-20737.88;5001543;28;20240;-64
2021/01/13 02:09:59;;;;;;;0.60;0.60;;;1.80;99.90;;;1.94;100.00;-20734.78;4993243;28;20207;-64
2021/01/13 02:12:30;;;;;;;0.60;0.57;;;1.70;99.90;;;1.98;100.00;-20735.63;5009697;28;20710;-65
2021/01/13 02:15:00;;;;;;;0.60;0.55;;;1.70;99.90;;;2.11;100.00;-20739.28;5013306;28;20221;-66
2021/01/13 02:17:34;;;;;;;0.60;0.50;;;1.80;99.90;;;2.20;100.00;-20741.63;4998670;28;20198;-65
2021/01/13 02:20:25;;;;;;;0.60;0.50;;;1.80;99.90;;;2.12;100.00;-20739.69;4994562;28;20178;-65
2021/01/13 02:22:59;;;;;;;0.60;0.60;;;1.80;99.90;;;2.14;100.00;-20740.09;5009629;28;20183;-64
2021/01/13 02:26:23;;;;;;;0.80;0.80;;;1.80;99.90;;;2.12;100.00;-20739.69;5011629;28;20198;-65
2021/01/13 02:29:15;;;;;;;0.60;0.50;;;1.80;99.90;;;2.13;100.00;-20739.81;4994752;28;20207;-65
2021/01/13 02:31:52;;;;;;;0.60;0.60;;;1.80;99.90;;;2.21;100.00;-20742.06;5027891;28;20186;-64
2021/01/13 02:34:32;;;;;;;0.60;0.50;;;1.80;99.90;;;2.14;100.00;-20740.25;5004887;28;20557;-64
2021/01/13 02:37:41;;;;;;;0.60;0.60;;;1.80;99.90;;;1.85;100.00;-20732.16;4993527;28;20182;-64
2021/01/13 02:40:12;;;;;;;0.60;0.60;;;1.70;99.90;;;1.75;100.00;-20729.34;4994609;28;20188;-67
2021/01/13 02:43:08;;;;;;;0.60;0.60;;;1.60;99.90;;;1.62;100.00;-20725.84;5013352;28;20194;-65
2021/01/13 02:45:39;;;;;;;0.60;0.60;;;1.50;99.90;;;1.51;100.00;-20722.94;5000835;28;20222;-65
2021/01/13 02:48:11;;;;;;;0.60;0.50;;;1.40;99.90;;;1.30;100.00;-20717.19;5013354;28;20183;-66
2021/01/13 02:50:45;;;;;;;0.60;0.60;;;1.30;99.90;;;1.37;100.00;-20719.16;4997020;28;20234;-66
2021/01/13 02:53:55;;;;;;;0.60;0.50;;;1.30;99.90;;;1.37;100.00;-20719.00;4993658;28;20180;-64
2021/01/13 02:56:47;;;;;;;0.60;0.50;;;1.30;99.90;;;1.23;100.00;-20715.22;5004966;28;20191;-67
2021/01/13 02:59:15;;;;;;;0.60;0.50;;;1.20;99.90;;;1.08;100.00;-20711.03;5012316;28;20215;-64
2021/01/13 03:01:44;;;;;;;0.60;0.60;;;1.10;99.90;;;1.13;100.00;-20712.44;5011240;28;20623;-64
2021/01/13 03:04:13;;;;;;;0.60;0.60;;;1.10;99.90;;;1.10;100.00;-20711.75;5013157;28;20203;-65
2021/01/13 03:06:46;;;;;;;0.60;0.60;;;1.10;99.90;;;1.23;100.00;-20715.22;5005981;28;20207;-65
2021/01/13 03:09:15;;;;;;;0.60;0.50;;;1.20;99.90;;;1.28;100.00;-20716.63;5012642;28;20179;-67
2021/01/13 03:11:43;;;;;;;1.00;1.00;;;1.20;99.90;;;1.32;100.00;-20717.75;4998939;28;20223;-65
2021/01/13 03:14:18;;;;;;;0.60;0.50;;;1.20;99.90;;;1.44;100.00;-20721.09;5001286;28;20230;-65
2021/01/13 03:17:08;;;;;;;0.60;0.50;;;1.30;99.90;;;1.64;100.00;-20726.56;5012024;28;20170;-65
2021/01/13 03:20:06;;;;;;;0.60;0.50;;;1.50;99.90;;;1.54;100.00;-20723.75;5008601;28;20203;-65
2021/01/13 03:22:43;;;;;;;0.60;0.60;;;1.40;99.90;;;1.53;100.00;-20723.47;5012938;28;20255;-64
2021/01/13 03:25:13;;;;;;;0.60;0.50;;;1.40;99.90;;;1.44;100.00;-20721.09;5010196;28;20289;-65
2021/01/13 03:27:45;;;;;;;0.60;0.60;;;1.30;99.90;;;1.47;100.00;-20721.66;4994746;28;20192;-64
2021/01/13 03:30:16;;;;;;;0.60;0.60;;;1.30;99.90;;;1.47;100.00;-20721.81;5010477;28;20253;-64
2021/01/13 03:33:19;;;;;;;0.60;0.55;;;1.30;99.90;;;1.34;100.00;-20718.31;5016386;28;20179;-65
2021/01/13 03:35:56;;;;;;;0.60;0.60;;;1.30;99.90;;;1.27;100.00;-20716.34;5001237;28;20234;-64
2021/01/13 03:38:27;;;;;;;0.60;0.50;;;1.20;99.90;;;1.24;100.00;-20715.50;5015281;28;20241;-65
2021/01/13 03:41:03;;;;;;;0.60;0.50;;;1.20;99.90;;;1.35;100.00;-20718.59;4997221;28;20580;-66
2021/01/13 03:43:37;;;;;;;0.63;0.60;;;1.30;99.90;;;1.42;100.00;-20720.53;4999372;28;20694;-65
2021/01/13 03:46:07;;;;;;;0.63;0.60;;;1.30;99.90;;;1.43;100.00;-20720.69;5006414;28;20628;-65
2021/01/13 03:48:46;;;;;;;0.60;0.60;;;1.30;99.90;;;1.38;100.00;-20719.28;4996692;28;20186;-66
2021/01/13 03:51:53;;;;;;;0.68;0.60;;;1.30;99.90;;;1.47;100.00;-20721.66;5003214;28;20191;-65
2021/01/13 03:54:25;;;;;;;0.60;0.60;;;1.30;99.90;;;1.54;100.00;-20723.63;5003652;28;20194;-65
2021/01/13 03:57:06;;;;;;;0.60;0.60;;;1.40;99.90;;;1.66;100.00;-20726.97;4996992;28;20640;-65
2021/01/13 03:59:45;;;;;;;0.60;0.60;;;1.50;99.90;;;1.81;100.00;-20731.16;5012642;28;20214;-65
2021/01/13 04:02:17;;;;;;;0.60;0.50;;;1.60;99.90;;;1.80;100.00;-20730.88;5015019;28;20198;-65
2021/01/13 04:04:57;;;;;;;0.60;0.60;;;1.60;99.90;;;1.90;100.00;-20733.53;5014088;28;20544;-65
2021/01/13 04:07:35;;;;;;;0.60;0.50;;;1.70;99.90;;;2.16;100.00;-20740.66;5016158;28;20187;-65
2021/01/13 04:10:09;;;;;;;0.60;0.50;;;1.80;99.90;;;2.05;100.00;-20737.59;5015389;28;20275;-64
2021/01/13 04:12:55;;;;;;;0.60;0.60;;;1.80;99.90;;;2.05;100.00;-20737.72;5006882;28;20237;-64
2021/01/13 04:15:35;;;;;;;0.60;0.50;;;1.80;99.90;;;1.99;100.00;-20735.91;5025990;28;20262;-67
2021/01/13 04:18:05;;;;;;;0.60;0.50;;;1.80;99.90;;;1.86;100.00;-20732.56;5003840;28;20241;-64
2021/01/13 04:20:34;;;;;;;0.60;0.60;;;1.70;99.90;;;1.71;100.00;-20728.22;5006761;28;20183;-65
2021/01/13 04:23:02;;;;;;;0.60;0.50;;;1.60;99.90;;;1.75;100.00;-20729.50;5012407;28;20194;-65
2021/01/13 04:25:30;;;;;;;0.60;0.60;;;1.60;99.90;;;1.84;100.00;-20732.00;5015035;28;20303;-65
2021/01/13 04:27:58;;;;;;;0.60;0.57;;;1.70;99.90;;;1.82;100.00;-20731.31;5014883;28;20265;-66
2021/01/13 04:30:27;;;;;;;0.60;0.50;;;1.60;99.90;;;1.66;100.00;-20726.97;5013528;28;20215;-65
2021/01/13 04:32:55;;;;;;;0.60;0.50;;;1.60;99.90;;;1.67;100.00;-20727.25;5010141;28;20249;-65
2021/01/13 04:35:24;;;;;;;0.60;0.50;;;1.60;99.90;;;1.75;100.00;-20729.50;5001908;28;20211;-64
2021/01/13 04:37:54;;;;;;;0.60;0.50;;;1.60;99.90;;;1.72;100.00;-20728.50;5010401;28;20655;-64
2021/01/13 04:40:32;;;;;;;0.60;0.57;;;1.60;99.90;;;1.82;100.00;-20731.31;5004592;28;20192;-67
2021/01/13 04:43:03;;;;;;;0.60;0.50;;;1.70;99.90;;;1.70;100.00;-20728.09;5012651;28;20195;-66
2021/01/13 04:45:42;;;;;;;0.60;0.50;;;1.60;99.90;;;1.67;100.00;-20727.25;5014732;28;20215;-67
2021/01/13 04:48:13;;;;;;;0.60;0.60;;;1.60;99.90;;;1.67;100.00;-20727.41;5007664;28;20234;-64
2021/01/13 04:50:42;;;;;;;0.60;0.50;;;1.60;99.90;;;1.65;100.00;-20726.69;5012117;28;20539;-65
2021/01/13 04:53:12;;;;;;;0.60;0.60;;;1.50;99.90;;;1.64;100.00;-20726.41;5014256;28;20302;-64
2021/01/13 04:55:51;;;;;;;0.60;0.50;;;1.40;99.90;;;1.67;100.00;-20727.25;5013856;28;20237;-64
2021/01/13 04:59:11;;;;;;;0.60;0.50;;;1.50;99.90;;;1.62;100.00;-20725.84;5014304;28;20179;-64
2021/01/13 05:02:07;;;;;;;0.60;0.50;;;1.40;99.90;;;1.67;100.00;-20727.25;4994646;28;20176;-65
2021/01/13 05:04:59;;;;;;;0.60;0.60;;;1.50;99.90;;;1.72;100.00;-20728.50;5001364;28;20215;-65
2021/01/13 05:07:37;;;;;;;0.60;0.60;;;1.50;99.90;;;1.89;100.00;-20733.41;5010881;28;20187;-65
2021/01/13 05:10:12;;;;;;;0.60;0.57;;;1.60;99.90;;;2.14;100.00;-20740.09;5003708;28;20206;-64
2021/01/13 05:12:51;;;;;;;0.60;0.60;;;1.80;99.90;;;2.19;100.00;-20741.50;5004136;28;20675;-65
2021/01/13 05:15:25;;;;;;;0.60;0.50;;;1.80;99.90;;;2.34;100.00;-20745.69;5011211;28;20234;-65
2021/01/13 05:18:06;;;;;;;0.60;0.50;;;1.90;99.90;;;2.40;100.00;-20747.38;5014249;28;20214;-65
2021/01/13 05:20:36;;;;;;;2.90;2.70;;;1.90;99.90;;;2.40;100.00;-20747.38;5006575;28;20187;-65
2021/01/13 05:23:05;;;;;;;0.60;0.60;;;1.90;99.90;;;2.41;100.00;-20747.66;5014203;28;20226;-65
2021/01/13 05:25:52;;;;;;;0.60;0.60;;;2.00;99.90;;;2.35;100.00;-20745.97;5011812;28;20202;-65
2021/01/13 05:28:21;;;;;;;0.60;0.60;;;2.00;99.90;;;2.39;100.00;-20747.09;4997424;28;20186;-64
2021/01/13 05:30:51;;;;;;;0.60;0.60;;;2.00;99.90;;;2.32;100.00;-20745.00;5011641;28;20631;-65
2021/01/13 05:33:21;;;;;;;0.60;0.60;;;2.00;99.90;;;2.41;100.00;-20747.66;5014100;28;20221;-65
2021/01/13 05:35:53;;;;;;;0.60;0.60;;;2.10;99.90;;;2.45;100.00;-20748.47;5010187;28;20709;-65
2021/01/13 05:39:06;;;;;;;1.08;1.00;;;2.10;99.90;;;2.56;100.00;-20751.56;5012273;28;20686;-64
2021/01/13 05:41:37;;;;;;;0.63;0.60;;;2.20;99.90;;;2.65;100.00;-20754.06;4994223;28;20258;-64
2021/01/13 05:44:05;;;;;;;0.60;0.60;;;2.30;99.90;;;2.64;100.00;-20753.78;5001670;28;20215;-65
2021/01/13 05:46:46;;;;;;;0.70;0.60;;;2.20;99.90;;;2.73;100.00;-20756.16;5026850;28;20517;-65
2021/01/13 05:49:15;;;;;;;0.60;0.60;;;2.30;99.90;;;2.70;100.00;-20755.47;5010761;28;20198;-64
2021/01/13 05:51:44;;;;;;;0.60;0.50;;;2.40;99.90;;;2.81;100.00;-20758.41;4999734;28;20536;-65
2021/01/13 05:54:15;;;;;;;0.60;0.50;;;2.40;99.90;;;2.79;100.00;-20757.97;5028277;28;20195;-64
2021/01/13 05:56:44;;;;;;;0.82;0.82;;;2.50;99.90;;;2.86;100.00;-20759.94;4999391;28;20180;-64
2021/01/13 05:59:15;;;;;;;0.60;0.50;;;2.50;99.90;;;2.88;100.00;-20760.50;5018025;28;20218;-64
2021/01/13 06:01:55;;;;;;;0.60;0.52;;;2.50;99.90;;;2.96;100.00;-20762.44;5011356;28;20273;-66
2021/01/13 06:04:24;;;;;;;0.60;0.50;;;2.60;99.90;;;3.00;100.00;-20763.56;5013523;28;20174;-64
2021/01/13 06:07:05;;;;;;;0.70;0.60;;;2.60;99.90;;;3.13;100.00;-20767.19;5008198;28;20678;-65
2021/01/13 06:09:40;;;;;;;0.60;0.60;;;2.60;99.90;;;3.14;100.00;-20767.47;5011216;28;20195;-65
2021/01/13 06:12:16;;;;;;;0.60;0.52;;;2.70;99.90;;;3.07;100.00;-20765.50;5007832;28;20190;-65
2021/01/13 06:14:48;;;;;;;0.60;0.50;;;2.70;99.90;;;3.27;100.00;-20771.09;5006071;28;20214;-64
2021/01/13 06:17:19;;;;;;;0.60;0.60;;;2.70;99.90;;;3.08;100.00;-20765.94;5009834;28;20196;-65
2021/01/13 06:19:48;;;;;;;0.60;0.50;;;2.70;99.90;;;3.14;100.00;-20767.47;5013136;28;20218;-65
2021/01/13 06:22:17;;;;;;;0.93;0.90;;;2.70;99.90;;;3.14;100.00;-20767.59;5011279;28;20209;-65
2021/01/13 06:24:47;;;;;;;0.60;0.50;;;2.80;99.90;;;3.09;100.00;-20766.06;5004625;28;20218;-66
2021/01/13 06:27:21;;;;;;;0.60;0.50;;;2.70;99.90;;;3.32;100.00;-20772.50;4999503;28;20230;-65
2021/01/13 06:29:50;;;;;;;0.60;0.60;;;2.80;99.90;;;3.41;100.00;-20774.72;4998575;28;20298;-64
2021/01/13 06:32:32;;;;;;;0.60;0.50;;;2.80;99.90;;;3.45;100.00;-20775.84;4993612;28;20233;-64
2021/01/13 06:35:23;;;;;;;0.60;0.50;;;2.80;99.90;;;3.34;100.00;-20773.03;4993853;28;20187;-68
2021/01/13 06:37:55;;;;;;;0.60;0.50;;;2.80;99.90;;;3.38;100.00;-20774.03;5011830;28;20198;-65
2021/01/13 06:40:22;;;;;;;0.70;0.70;;;2.90;99.90;;;3.52;100.00;-20777.78;5006757;28;20191;-64
2021/01/13 06:42:50;;;;;;;1.40;1.30;;;2.90;99.90;;;3.35;100.00;-20773.19;5011208;28;20199;-64
2021/01/13 06:45:31;;;;;;;1.52;1.42;;;2.90;99.90;;;3.46;100.00;-20776.25;5012523;28;20618;-65
2021/01/13 06:47:59;;;;;;;0.63;0.57;;;2.90;99.90;;;3.31;100.00;-20772.19;5006203;28;20284;-64
2021/01/13 06:50:35;;;;;;;0.60;0.60;;;2.90;99.90;;;3.38;100.00;-20774.03;5002638;28;20278;-65
2021/01/13 06:53:06;;;;;;;0.60;0.60;;;2.90;99.90;;;3.35;100.00;-20773.31;4999748;28;20739;-65
2021/01/13 06:55:35;;;;;;;0.63;0.63;;;2.90;99.90;;;3.34;100.00;-20773.03;4999054;28;20175;-66
2021/01/13 06:58:12;;;;;;;0.70;0.60;;;2.90;99.90;;;3.30;100.00;-20771.78;5025143;28;20199;-65
2021/01/13 07:00:40;;;;;;;0.60;0.50;;;2.80;99.90;;;3.10;100.00;-20766.34;5011748;28;20574;-65
2021/01/13 07:03:30;;;;;;;0.60;0.60;;;2.80;99.90;;;3.15;100.00;-20767.75;5011661;28;20195;-65
2021/01/13 07:06:00;;;;;;;0.60;0.60;;;2.70;99.90;;;3.11;100.00;-20766.63;5001163;28;20200;-64
2021/01/13 07:08:28;;;;;;;0.60;0.55;;;2.70;99.90;;;2.92;100.00;-20761.47;5008308;28;20230;-65
2021/01/13 07:11:03;;;;;;;0.60;0.50;;;2.70;99.90;;;2.95;100.00;-20762.31;5011759;28;20233;-65
2021/01/13 07:13:33;;;;;;;0.60;0.60;;;2.60;99.90;;;2.82;100.00;-20758.81;5013268;28;20694;-64
2021/01/13 07:16:03;;;;;;;0.60;0.50;;;2.60;99.90;;;2.78;100.00;-20757.56;5015265;28;20241;-65
2021/01/13 07:18:32;;;;;;;0.60;0.57;;;2.50;99.90;;;2.66;100.00;-20754.34;5009475;28;20190;-64
2021/01/13 07:21:06;;;;;;;0.60;0.50;;;2.40;99.90;;;2.51;100.00;-20750.31;5013249;28;20682;-64
2021/01/13 07:23:33;;;;;;;0.60;0.60;;;2.20;99.90;;;2.33;100.00;-20745.41;5014515;28;20217;-65
2021/01/13 07:26:01;;;;;;;0.60;0.60;;;2.20;99.90;;;2.21;100.00;-20742.06;5010373;28;20787;-66
2021/01/13 07:28:35;;;;;;;0.60;0.60;;;2.00;99.90;;;2.34;100.00;-20745.56;5016303;28;20215;-65
2021/01/13 07:31:04;;;;;;;0.60;0.60;;;2.10;99.90;;;2.33;100.00;-20745.41;5015191;28;20649;-66
2021/01/13 07:33:35;;;;;;;0.60;0.50;;;2.10;99.90;;;2.30;100.00;-20744.56;5013702;28;20262;-66
2021/01/13 07:36:04;;;;;;;0.60;0.60;;;2.10;99.90;;;2.28;100.00;-20743.88;5014459;28;20179;-66
2021/01/13 07:38:33;;;;;;;0.60;0.50;;;2.10;99.90;;;2.09;100.00;-20738.84;5015745;28;20187;-66
2021/01/13 07:41:04;;;;;;;0.60;0.50;;;1.90;99.90;;;2.01;100.00;-20736.47;5012414;28;20603;-66
2021/01/13 07:44:36;;;;;;;0.60;0.60;;;1.80;99.90;;;2.08;100.00;-20738.56;5015680;28;20748;-66
2021/01/13 07:47:03;;;;;;;0.60;0.52;;;1.90;99.90;;;1.94;100.00;-20734.66;5015478;28;20612;-64
2021/01/13 07:50:03;;;;;;;0.60;0.60;;;1.80;99.90;;;2.01;100.00;-20736.47;5012717;28;20179;-66
2021/01/13 07:52:38;;;;;;;0.60;0.50;;;1.80;99.90;;;2.19;100.00;-20741.50;5009109;28;20187;-65
2021/01/13 07:55:16;;;;;;;0.60;0.57;;;2.00;99.90;;;2.14;100.00;-20740.25;5013820;28;20600;-65
2021/01/13 07:57:49;;;;;;;0.60;0.50;;;1.90;99.90;;;2.12;100.00;-20739.69;5015322;28;20210;-65
2021/01/13 08:00:31;;;;;;;0.60;0.50;;;1.90;99.90;;;2.14;100.00;-20740.09;5009555;28;20203;-66
2021/01/13 08:03:57;;;;;;;0.60;0.60;;;1.90;99.90;;;2.10;100.00;-20738.97;5005170;28;20217;-67
2021/01/13 08:06:35;;;;;;;0.60;0.60;;;1.80;99.90;;;2.04;100.00;-20737.31;4948622;29;20201;-64
2021/01/13 08:09:17;;;;;;;0.60;0.50;;;1.80;99.90;;;2.00;100.00;-20736.34;5005802;28;20234;-64
2021/01/13 08:12:38;;;;;;;0.60;0.50;;;1.80;99.90;;;2.08;100.00;-20738.44;5013177;28;20190;-65
2021/01/13 08:16:10;;;;;;;0.60;0.50;;;1.90;99.90;;;2.25;100.00;-20743.19;5009802;28;20214;-67
2021/01/13 08:19:40;;;;;;;1.25;0.95;;;2.00;99.90;;;2.31;100.00;-20744.84;5009205;28;20261;-66
2021/01/13 08:22:29;;;;;;;1.48;1.40;;;2.10;99.90;;;2.39;100.00;-20747.09;4994036;28;20191;-65
2021/01/13 08:25:12;;;;;;;0.60;0.50;;;2.10;99.90;;;2.52;100.00;-20750.44;5011254;28;20187;-65
2021/01/13 08:27:57;;;;;;;0.60;0.60;;;2.10;99.90;;;2.44;100.00;-20748.22;5001194;28;20266;-65
2021/01/13 08:30:28;;;;;;;0.60;0.50;;;2.10;99.90;;;2.60;100.00;-20752.66;5001570;28;20674;-65
2021/01/13 08:32:57;;;;;;;0.60;0.60;;;2.20;99.90;;;2.57;100.00;-20751.84;4995362;28;20570;-65
2021/01/13 08:35:35;;;;;;;0.60;0.50;;;2.20;99.90;;;2.53;100.00;-20750.72;5002476;28;20195;-68
2021/01/13 08:38:08;;;;;;;0.60;0.60;;;2.20;99.90;;;2.60;100.00;-20752.81;5013605;28;20201;-66
2021/01/13 08:40:37;;;;;;;0.60;0.50;;;2.30;99.90;;;2.65;100.00;-20754.06;5012937;28;20245;-66
2021/01/13 08:43:13;;;;;;;0.60;0.57;;;2.30;99.90;;;2.69;100.00;-20755.19;5006354;28;20210;-66
2021/01/13 08:45:44;;;;;;;0.60;0.60;;;2.40;99.90;;;2.71;100.00;-20755.59;4998636;28;20674;-66
2021/01/13 08:48:13;;;;;;;0.60;0.50;;;2.40;99.90;;;2.66;100.00;-20754.34;5015311;28;20543;-65
2021/01/13 08:50:43;;;;;;;0.60;0.57;;;2.40;99.90;;;2.64;100.00;-20753.78;5013388;28;20191;-64
2021/01/13 08:53:26;;;;;;;0.60;0.50;;;2.40;99.90;;;2.80;100.00;-20758.25;5030352;28;20183;-64
2021/01/13 08:55:53;;;;;;;0.60;0.50;;;2.50;99.90;;;2.99;100.00;-20763.28;4999926;28;20180;-64
2021/01/13 08:58:29;;;;;;;1.05;0.95;;;2.60;99.90;;;3.24;100.00;-20770.25;4995035;28;20195;-65
2021/01/13 09:01:05;;;;;;;0.60;0.50;;;2.70;99.90;;;3.44;100.00;-20775.56;5008472;28;20190;-65
2021/01/13 09:03:39;;;;;;;0.70;0.70;;;2.90;99.90;;;3.48;100.00;-20776.66;5009353;28;20226;-65
2021/01/13 09:06:21;;;;;;;0.60;0.50;;;3.00;99.90;;;3.70;100.00;-20782.81;4999125;28;20608;-65
2021/01/13 09:08:50;;;;;;;0.93;0.85;;;3.10;99.90;;;3.96;100.00;-20789.78;5010026;28;20560;-65
2021/01/13 09:11:32;;;;;;;0.60;0.50;;;3.30;99.90;;;4.14;100.00;-20794.78;4996258;28;20194;-65
2021/01/13 09:14:18;;;;;;;0.60;0.60;;;3.40;99.90;;;4.28;100.00;-20798.69;5001931;28;20289;-66
2021/01/13 09:16:49;;;;;;;0.60;0.50;;;3.60;99.90;;;4.44;100.00;-20802.88;5013736;28;20194;-66
2021/01/13 09:19:40;;;;;;;0.60;0.60;;;3.70;99.90;;;4.47;100.00;-20803.84;5014564;28;20179;-66
2021/01/13 09:22:09;;;;;;;0.63;0.60;;;3.80;99.90;;;4.40;100.00;-20801.91;5012413;28;20450;-65
2021/01/13 09:24:40;;;;;;;0.60;0.60;;;3.80;99.90;;;4.41;100.00;-20802.19;5028070;28;20804;-66
2021/01/13 09:27:09;;;;;;;0.60;0.50;;;3.90;99.90;;;4.93;100.00;-20816.25;5013616;28;20209;-65
2021/01/13 09:29:55;;;;;;;0.60;0.60;;;4.00;99.90;;;5.31;100.00;-20826.81;5012871;28;20214;-67
2021/01/13 09:32:23;;;;;;;0.60;0.50;;;4.30;99.90;;;5.14;100.00;-20822.09;5009836;28;20437;-66
2021/01/13 09:34:55;;;;;;;0.60;0.50;;;4.40;99.90;;;5.40;100.00;-20829.19;5012605;28;20445;-66
2021/01/13 09:37:24;;;;;;;0.60;0.60;;;4.50;99.90;;;5.32;100.00;-20827.09;4998344;28;20430;-66
2021/01/13 09:40:00;;;;;;;0.60;0.60;;;4.40;99.90;;;5.44;100.00;-20830.16;5002350;28;20441;-66
2021/01/13 09:42:37;;;;;;;0.60;0.50;;;4.50;99.90;;;5.89;100.00;-20842.56;5010396;28;20445;-67
2021/01/13 09:45:07;;;;;;;0.70;0.60;;;4.70;99.90;;;6.14;100.00;-20849.38;5012577;28;20984;-65
2021/01/13 09:47:35;;;;;;;0.60;0.57;;;4.80;99.90;;;6.16;100.00;-20849.78;5000131;28;20951;-65
2021/01/13 09:50:03;;;;;;;0.60;0.57;;;5.00;99.90;;;5.89;100.00;-20842.56;5002006;28;20434;-65
2021/01/13 09:52:40;;;;;;;0.60;0.60;;;5.00;99.90;;;5.96;100.00;-20844.50;4993767;28;20431;-66
2021/01/13 09:55:08;;;;;;;0.60;0.60;;;5.10;99.90;;;6.20;100.00;-20850.91;4994093;28;20513;-65
2021/01/13 09:57:37;;;;;;;0.60;0.60;;;4.90;99.90;;;5.86;100.00;-20841.56;5026469;28;20933;-65
2021/01/13 10:00:07;;;;;;;0.60;0.60;;;4.80;99.90;;;5.68;100.00;-20836.84;5012088;28;20545;-65
2021/01/13 10:02:46;;;;;;;0.60;0.60;;;4.80;99.90;;;5.77;100.00;-20839.22;5012202;28;20429;-65
2021/01/13 10:05:14;;;;;;;0.90;0.80;;;4.90;99.90;;;5.80;100.00;-20840.19;5013009;28;20444;-65
2021/01/13 10:07:44;;;;;;;0.60;0.60;;;4.70;99.90;;;5.82;100.00;-20840.59;4993512;28;20467;-65
2021/01/13 10:10:12;;;;;;;0.67;0.60;;;4.70;99.90;;;5.33;100.00;-20827.25;5007164;28;20775;-65
2021/01/13 10:12:45;;;;;;;0.60;0.60;;;4.70;99.90;;;5.69;100.00;-20837.13;5012710;28;20955;-66
2021/01/13 10:15:14;;;;;;;0.70;0.63;;;4.70;99.90;;;5.42;100.00;-20829.59;5012397;28;20477;-65
2021/01/13 10:17:43;;;;;;;0.60;0.60;;;4.70;99.90;;;5.50;100.00;-20831.84;4998476;28;20449;-65
2021/01/13 10:20:13;;;;;;;0.63;0.60;;;4.70;99.90;;;5.50;100.00;-20831.97;5002363;28;20439;-66
2021/01/13 10:22:43;;;;;;;0.60;0.60;;;4.70;99.90;;;5.61;100.00;-20834.91;4999911;28;20934;-69
2021/01/13 10:25:24;;;;;;;0.60;0.60;;;4.70;99.90;;;5.77;100.00;-20839.34;5011958;28;20797;-66
2021/01/13 10:27:51;;;;;;;0.60;0.60;;;4.80;99.90;;;5.62;100.00;-20835.16;5012914;28;20479;-67
2021/01/13 10:30:19;;;;;;;0.60;0.50;;;4.80;99.90;;;5.42;100.00;-20829.59;5005746;28;21016;-66
2021/01/13 10:32:49;;;;;;;0.60;0.60;;;4.80;99.90;;;5.53;100.00;-20832.66;4994040;28;20950;-67
2021/01/13 10:35:19;;;;;;;2.10;2.00;;;4.80;99.90;;;5.93;100.00;-20843.53;4995354;28;20454;-66
2021/01/13 10:37:52;;;;;;;0.60;0.50;;;4.90;99.90;;;6.01;100.00;-20845.75;4993203;28;20434;-66
2021/01/13 10:40:21;;;;;;;0.60;0.50;;;4.90;99.90;;;6.03;100.00;-20846.31;5003170;28;20429;-67
2021/01/13 10:42:54;;;;;;;0.60;0.50;;;4.90;99.90;;;5.80;100.00;-20840.19;5016399;28;20446;-67
2021/01/13 10:45:23;;;;;;;0.70;0.60;;;4.90;99.90;;;5.95;100.00;-20844.22;5016091;28;20524;-67
2021/01/13 10:47:56;;;;;;;0.70;0.60;;;5.00;99.90;;;5.77;100.00;-20839.34;5016131;28;20461;-66
2021/01/13 10:50:27;;;;;;;0.60;0.60;;;5.00;99.90;;;5.95;100.00;-20844.09;5014893;28;20466;-66
2021/01/13 10:52:58;;;;;;;0.60;0.60;;;4.90;99.90;;;5.95;100.00;-20844.09;5003702;28;20437;-65
2021/01/13 10:55:28;;;;;;;0.60;0.50;;;4.90;99.90;;;6.01;100.00;-20845.88;5015351;28;20429;-66